X  Zatvori METAR podaci zračne luke        LDPL Pula
Temperatura
32°C Temperatura
20°C Točka rosišta
49% Vlaga



Vjetar
9 KM/S
6 MPS
3 M/S
5 Čvorovi



260°
Z
Trenutna situacija

Mostly Sunny Pretežno sunčano
Tlak zraka 1018 (hPa) - 30.05 (inHg)
Vidljivost 6 (milje) - 10 (km)
Zračna luka
Kôd zračne luke LDPL

Lokacija: Pula
Udaljenost: 39 (km)

Metar:
METAR LDPL 201230Z 26005KT 210V320 CAVOK 32/20 Q1018 BECMG 27010KT

Vrijeme: 20-06-2024 14:30 CEST